sensor_id;sensor_type;location;lat;lon;timestamp;P1;durP1;ratioP1;P2;durP2;ratioP2
1563;SDS011;775;51.958;7.976;2024-03-08T00:00:53;25.67;;;12.43;;
1563;SDS011;775;51.958;7.976;2024-03-08T00:03:40;26.03;;;12.60;;
1563;SDS011;775;51.958;7.976;2024-03-08T00:06:28;23.83;;;12.47;;
1563;SDS011;775;51.958;7.976;2024-03-08T00:09:15;25.13;;;12.07;;
1563;SDS011;775;51.958;7.976;2024-03-08T00:12:03;26.60;;;12.93;;
1563;SDS011;775;51.958;7.976;2024-03-08T00:14:53;24.30;;;12.03;;
1563;SDS011;775;51.958;7.976;2024-03-08T00:17:40;27.90;;;13.33;;
1563;SDS011;775;51.958;7.976;2024-03-08T00:20:28;27.10;;;13.10;;
1563;SDS011;775;51.958;7.976;2024-03-08T00:23:15;25.63;;;11.77;;
1563;SDS011;775;51.958;7.976;2024-03-08T00:26:03;26.00;;;12.73;;
1563;SDS011;775;51.958;7.976;2024-03-08T00:28:51;29.10;;;12.00;;
1563;SDS011;775;51.958;7.976;2024-03-08T00:31:41;25.97;;;11.60;;
1563;SDS011;775;51.958;7.976;2024-03-08T00:34:28;28.47;;;14.07;;
1563;SDS011;775;51.958;7.976;2024-03-08T00:37:17;25.50;;;13.60;;
1563;SDS011;775;51.958;7.976;2024-03-08T00:40:05;26.10;;;14.10;;
1563;SDS011;775;51.958;7.976;2024-03-08T00:42:54;25.03;;;11.87;;
1563;SDS011;775;51.958;7.976;2024-03-08T00:45:41;30.13;;;14.57;;
1563;SDS011;775;51.958;7.976;2024-03-08T00:48:30;25.77;;;13.47;;
1563;SDS011;775;51.958;7.976;2024-03-08T00:51:18;25.73;;;12.47;;
1563;SDS011;775;51.958;7.976;2024-03-08T00:54:05;26.37;;;12.50;;
1563;SDS011;775;51.958;7.976;2024-03-08T00:56:53;30.80;;;14.67;;
1563;SDS011;775;51.958;7.976;2024-03-08T00:59:40;27.90;;;14.67;;
1563;SDS011;775;51.958;7.976;2024-03-08T01:02:28;27.30;;;13.83;;
1563;SDS011;775;51.958;7.976;2024-03-08T01:05:17;30.50;;;13.90;;
1563;SDS011;775;51.958;7.976;2024-03-08T01:08:05;29.97;;;15.30;;
1563;SDS011;775;51.958;7.976;2024-03-08T01:10:53;27.10;;;14.87;;
1563;SDS011;775;51.958;7.976;2024-03-08T01:13:40;25.73;;;13.97;;
1563;SDS011;775;51.958;7.976;2024-03-08T01:16:28;27.17;;;15.47;;
1563;SDS011;775;51.958;7.976;2024-03-08T01:19:15;29.47;;;15.93;;
1563;SDS011;775;51.958;7.976;2024-03-08T01:22:04;27.63;;;15.20;;
1563;SDS011;775;51.958;7.976;2024-03-08T01:24:52;27.60;;;15.27;;
1563;SDS011;775;51.958;7.976;2024-03-08T01:27:40;27.00;;;14.67;;
1563;SDS011;775;51.958;7.976;2024-03-08T01:30:27;27.30;;;15.30;;
1563;SDS011;775;51.958;7.976;2024-03-08T01:33:15;27.90;;;15.93;;
1563;SDS011;775;51.958;7.976;2024-03-08T01:36:02;27.13;;;14.97;;
1563;SDS011;775;51.958;7.976;2024-03-08T01:38:51;28.63;;;16.70;;
1563;SDS011;775;51.958;7.976;2024-03-08T01:41:39;29.37;;;15.70;;
1563;SDS011;775;51.958;7.976;2024-03-08T01:44:26;29.83;;;16.23;;
1563;SDS011;775;51.958;7.976;2024-03-08T01:47:15;29.10;;;16.10;;
1563;SDS011;775;51.958;7.976;2024-03-08T01:50:03;28.87;;;14.87;;
1563;SDS011;775;51.958;7.976;2024-03-08T01:52:52;29.03;;;14.13;;
1563;SDS011;775;51.958;7.976;2024-03-08T01:55:42;28.97;;;15.13;;
1563;SDS011;775;51.958;7.976;2024-03-08T01:58:30;28.63;;;15.00;;
1563;SDS011;775;51.958;7.976;2024-03-08T02:01:18;29.07;;;14.40;;
1563;SDS011;775;51.958;7.976;2024-03-08T02:04:05;28.43;;;15.37;;
1563;SDS011;775;51.958;7.976;2024-03-08T02:06:53;26.83;;;13.87;;
1563;SDS011;775;51.958;7.976;2024-03-08T02:09:41;29.50;;;16.17;;
1563;SDS011;775;51.958;7.976;2024-03-08T02:12:29;29.30;;;16.27;;
1563;SDS011;775;51.958;7.976;2024-03-08T02:15:17;26.87;;;13.60;;
1563;SDS011;775;51.958;7.976;2024-03-08T02:18:05;28.20;;;14.27;;
1563;SDS011;775;51.958;7.976;2024-03-08T02:20:53;28.30;;;14.07;;
1563;SDS011;775;51.958;7.976;2024-03-08T02:23:42;27.93;;;15.00;;
1563;SDS011;775;51.958;7.976;2024-03-08T02:26:29;30.90;;;15.07;;
1563;SDS011;775;51.958;7.976;2024-03-08T02:29:16;31.40;;;14.77;;
1563;SDS011;775;51.958;7.976;2024-03-08T02:32:05;28.77;;;15.80;;
1563;SDS011;775;51.958;7.976;2024-03-08T02:34:55;27.50;;;14.70;;
1563;SDS011;775;51.958;7.976;2024-03-08T02:37:46;32.23;;;16.03;;
1563;SDS011;775;51.958;7.976;2024-03-08T02:40:34;29.07;;;15.33;;
1563;SDS011;775;51.958;7.976;2024-03-08T02:43:21;32.10;;;16.70;;
1563;SDS011;775;51.958;7.976;2024-03-08T02:46:09;28.73;;;15.77;;
1563;SDS011;775;51.958;7.976;2024-03-08T02:48:57;29.70;;;16.70;;
1563;SDS011;775;51.958;7.976;2024-03-08T02:51:44;33.23;;;14.50;;
1563;SDS011;775;51.958;7.976;2024-03-08T02:54:33;32.10;;;16.50;;
1563;SDS011;775;51.958;7.976;2024-03-08T02:57:22;31.30;;;17.10;;
1563;SDS011;775;51.958;7.976;2024-03-08T03:00:10;30.07;;;17.37;;
1563;SDS011;775;51.958;7.976;2024-03-08T03:02:58;29.43;;;16.40;;
1563;SDS011;775;51.958;7.976;2024-03-08T03:05:48;31.47;;;17.03;;
1563;SDS011;775;51.958;7.976;2024-03-08T03:08:35;29.10;;;15.50;;
1563;SDS011;775;51.958;7.976;2024-03-08T03:11:25;30.73;;;16.30;;
1563;SDS011;775;51.958;7.976;2024-03-08T03:14:13;29.37;;;16.97;;
1563;SDS011;775;51.958;7.976;2024-03-08T03:17:01;28.90;;;15.30;;
1563;SDS011;775;51.958;7.976;2024-03-08T03:19:50;32.20;;;17.10;;
1563;SDS011;775;51.958;7.976;2024-03-08T03:22:38;32.47;;;17.33;;
1563;SDS011;775;51.958;7.976;2024-03-08T03:25:26;32.00;;;15.37;;
1563;SDS011;775;51.958;7.976;2024-03-08T03:28:20;29.63;;;14.80;;
1563;SDS011;775;51.958;7.976;2024-03-08T03:31:09;32.13;;;17.23;;
1563;SDS011;775;51.958;7.976;2024-03-08T03:33:59;30.00;;;16.13;;
1563;SDS011;775;51.958;7.976;2024-03-08T03:36:49;31.20;;;15.07;;
1563;SDS011;775;51.958;7.976;2024-03-08T03:39:36;33.27;;;18.17;;
1563;SDS011;775;51.958;7.976;2024-03-08T03:42:33;32.47;;;18.43;;
1563;SDS011;775;51.958;7.976;2024-03-08T03:45:25;28.13;;;14.37;;
1563;SDS011;775;51.958;7.976;2024-03-08T03:48:12;31.23;;;16.60;;
1563;SDS011;775;51.958;7.976;2024-03-08T03:51:00;29.10;;;15.93;;
1563;SDS011;775;51.958;7.976;2024-03-08T03:53:47;27.50;;;14.40;;
1563;SDS011;775;51.958;7.976;2024-03-08T03:56:35;32.17;;;17.70;;
1563;SDS011;775;51.958;7.976;2024-03-08T03:59:22;34.00;;;17.70;;
1563;SDS011;775;51.958;7.976;2024-03-08T04:02:11;29.13;;;15.60;;
1563;SDS011;775;51.958;7.976;2024-03-08T04:04:59;28.70;;;15.17;;
1563;SDS011;775;51.958;7.976;2024-03-08T04:07:46;31.93;;;15.87;;
1563;SDS011;775;51.958;7.976;2024-03-08T04:10:34;31.97;;;17.30;;
1563;SDS011;775;51.958;7.976;2024-03-08T04:13:22;31.50;;;17.90;;
1563;SDS011;775;51.958;7.976;2024-03-08T04:16:09;30.90;;;17.20;;
1563;SDS011;775;51.958;7.976;2024-03-08T04:18:58;31.47;;;17.90;;
1563;SDS011;775;51.958;7.976;2024-03-08T04:21:49;31.37;;;17.17;;
1563;SDS011;775;51.958;7.976;2024-03-08T04:24:37;31.57;;;18.30;;
1563;SDS011;775;51.958;7.976;2024-03-08T04:27:25;30.03;;;16.90;;
1563;SDS011;775;51.958;7.976;2024-03-08T04:30:13;29.10;;;15.80;;
1563;SDS011;775;51.958;7.976;2024-03-08T04:33:00;31.67;;;18.00;;
1563;SDS011;775;51.958;7.976;2024-03-08T04:35:50;31.70;;;18.57;;
1563;SDS011;775;51.958;7.976;2024-03-08T04:38:38;31.83;;;17.73;;
1563;SDS011;775;51.958;7.976;2024-03-08T04:41:26;30.03;;;16.47;;
1563;SDS011;775;51.958;7.976;2024-03-08T04:44:15;34.97;;;18.30;;
1563;SDS011;775;51.958;7.976;2024-03-08T04:47:03;28.70;;;15.20;;
1563;SDS011;775;51.958;7.976;2024-03-08T04:49:51;32.40;;;16.53;;
1563;SDS011;775;51.958;7.976;2024-03-08T04:52:41;31.43;;;17.43;;
1563;SDS011;775;51.958;7.976;2024-03-08T04:55:28;30.73;;;18.00;;
1563;SDS011;775;51.958;7.976;2024-03-08T04:58:16;30.30;;;18.40;;
1563;SDS011;775;51.958;7.976;2024-03-08T05:01:03;32.90;;;17.07;;
1563;SDS011;775;51.958;7.976;2024-03-08T05:03:51;33.20;;;18.67;;
1563;SDS011;775;51.958;7.976;2024-03-08T05:06:41;33.80;;;18.40;;
1563;SDS011;775;51.958;7.976;2024-03-08T05:09:30;33.87;;;18.87;;
1563;SDS011;775;51.958;7.976;2024-03-08T05:12:18;32.77;;;18.80;;
1563;SDS011;775;51.958;7.976;2024-03-08T05:15:06;28.00;;;16.20;;
1563;SDS011;775;51.958;7.976;2024-03-08T05:17:53;32.40;;;17.10;;
1563;SDS011;775;51.958;7.976;2024-03-08T05:20:43;30.03;;;18.77;;
1563;SDS011;775;51.958;7.976;2024-03-08T05:23:31;30.23;;;17.83;;
1563;SDS011;775;51.958;7.976;2024-03-08T05:26:21;30.90;;;18.50;;
1563;SDS011;775;51.958;7.976;2024-03-08T05:29:08;31.20;;;20.17;;
1563;SDS011;775;51.958;7.976;2024-03-08T05:31:56;29.70;;;17.80;;
1563;SDS011;775;51.958;7.976;2024-03-08T05:34:44;28.77;;;16.47;;
1563;SDS011;775;51.958;7.976;2024-03-08T05:37:32;34.80;;;20.57;;
1563;SDS011;775;51.958;7.976;2024-03-08T05:40:19;34.30;;;16.50;;
1563;SDS011;775;51.958;7.976;2024-03-08T05:43:08;32.00;;;16.90;;
1563;SDS011;775;51.958;7.976;2024-03-08T05:45:57;32.40;;;17.57;;
1563;SDS011;775;51.958;7.976;2024-03-08T05:48:44;34.90;;;17.30;;
1563;SDS011;775;51.958;7.976;2024-03-08T05:51:32;37.07;;;18.10;;
1563;SDS011;775;51.958;7.976;2024-03-08T05:54:20;34.77;;;17.70;;
1563;SDS011;775;51.958;7.976;2024-03-08T05:57:09;31.03;;;15.97;;
1563;SDS011;775;51.958;7.976;2024-03-08T05:59:58;30.40;;;16.67;;
1563;SDS011;775;51.958;7.976;2024-03-08T06:02:46;32.30;;;16.20;;
1563;SDS011;775;51.958;7.976;2024-03-08T06:05:33;32.03;;;16.30;;
1563;SDS011;775;51.958;7.976;2024-03-08T06:08:21;31.17;;;17.07;;
1563;SDS011;775;51.958;7.976;2024-03-08T06:11:08;31.00;;;16.70;;
1563;SDS011;775;51.958;7.976;2024-03-08T06:13:56;28.97;;;16.70;;
1563;SDS011;775;51.958;7.976;2024-03-08T06:16:46;32.13;;;18.20;;
1563;SDS011;775;51.958;7.976;2024-03-08T06:19:35;32.60;;;17.07;;
1563;SDS011;775;51.958;7.976;2024-03-08T06:22:22;31.90;;;17.03;;
1563;SDS011;775;51.958;7.976;2024-03-08T06:25:10;31.93;;;15.90;;
1563;SDS011;775;51.958;7.976;2024-03-08T06:27:59;31.43;;;16.77;;
1563;SDS011;775;51.958;7.976;2024-03-08T06:30:46;28.73;;;15.67;;
1563;SDS011;775;51.958;7.976;2024-03-08T06:33:37;30.57;;;16.67;;
1563;SDS011;775;51.958;7.976;2024-03-08T06:36:25;33.57;;;18.33;;
1563;SDS011;775;51.958;7.976;2024-03-08T06:39:13;29.53;;;16.07;;
1563;SDS011;775;51.958;7.976;2024-03-08T06:42:00;29.83;;;15.40;;
1563;SDS011;775;51.958;7.976;2024-03-08T06:44:50;32.80;;;18.03;;
1563;SDS011;775;51.958;7.976;2024-03-08T06:47:40;32.10;;;17.17;;
1563;SDS011;775;51.958;7.976;2024-03-08T06:50:30;31.13;;;15.50;;
1563;SDS011;775;51.958;7.976;2024-03-08T06:53:17;33.67;;;19.27;;
1563;SDS011;775;51.958;7.976;2024-03-08T06:56:05;32.77;;;17.60;;
1563;SDS011;775;51.958;7.976;2024-03-08T06:58:53;34.63;;;18.60;;
1563;SDS011;775;51.958;7.976;2024-03-08T07:01:40;34.07;;;17.27;;
1563;SDS011;775;51.958;7.976;2024-03-08T07:04:28;33.40;;;19.00;;
1563;SDS011;775;51.958;7.976;2024-03-08T07:07:18;31.60;;;17.90;;
1563;SDS011;775;51.958;7.976;2024-03-08T07:10:06;37.40;;;17.47;;
1563;SDS011;775;51.958;7.976;2024-03-08T07:12:56;33.63;;;18.00;;
1563;SDS011;775;51.958;7.976;2024-03-08T07:15:43;32.07;;;17.70;;
1563;SDS011;775;51.958;7.976;2024-03-08T07:18:32;32.80;;;17.87;;
1563;SDS011;775;51.958;7.976;2024-03-08T07:21:21;35.30;;;18.13;;
1563;SDS011;775;51.958;7.976;2024-03-08T07:24:10;31.47;;;16.33;;
1563;SDS011;775;51.958;7.976;2024-03-08T07:27:13;33.93;;;19.27;;
1563;SDS011;775;51.958;7.976;2024-03-08T07:30:00;34.13;;;18.00;;
1563;SDS011;775;51.958;7.976;2024-03-08T07:32:48;32.97;;;18.53;;
1563;SDS011;775;51.958;7.976;2024-03-08T07:35:35;32.77;;;18.43;;
1563;SDS011;775;51.958;7.976;2024-03-08T07:38:23;31.80;;;17.23;;
1563;SDS011;775;51.958;7.976;2024-03-08T07:41:12;31.63;;;17.90;;
1563;SDS011;775;51.958;7.976;2024-03-08T07:43:59;35.97;;;19.63;;
1563;SDS011;775;51.958;7.976;2024-03-08T07:46:49;35.00;;;19.80;;
1563;SDS011;775;51.958;7.976;2024-03-08T07:49:36;34.67;;;19.47;;
1563;SDS011;775;51.958;7.976;2024-03-08T07:52:24;34.70;;;19.63;;
1563;SDS011;775;51.958;7.976;2024-03-08T07:55:11;31.83;;;16.70;;
1563;SDS011;775;51.958;7.976;2024-03-08T07:58:00;33.80;;;17.20;;
1563;SDS011;775;51.958;7.976;2024-03-08T08:00:48;30.07;;;15.70;;
1563;SDS011;775;51.958;7.976;2024-03-08T08:03:35;35.57;;;17.80;;
1563;SDS011;775;51.958;7.976;2024-03-08T08:06:23;32.00;;;17.30;;
1563;SDS011;775;51.958;7.976;2024-03-08T08:09:10;34.00;;;17.40;;
1563;SDS011;775;51.958;7.976;2024-03-08T08:12:00;32.40;;;16.60;;
1563;SDS011;775;51.958;7.976;2024-03-08T08:14:50;34.70;;;18.13;;
1563;SDS011;775;51.958;7.976;2024-03-08T08:17:37;35.57;;;18.60;;
1563;SDS011;775;51.958;7.976;2024-03-08T08:20:25;33.80;;;18.70;;
1563;SDS011;775;51.958;7.976;2024-03-08T08:23:14;30.27;;;16.73;;
1563;SDS011;775;51.958;7.976;2024-03-08T08:26:02;34.37;;;18.97;;
1563;SDS011;775;51.958;7.976;2024-03-08T08:28:50;37.13;;;19.77;;
1563;SDS011;775;51.958;7.976;2024-03-08T08:31:39;38.33;;;20.13;;
1563;SDS011;775;51.958;7.976;2024-03-08T08:34:27;36.50;;;19.97;;
1563;SDS011;775;51.958;7.976;2024-03-08T08:37:15;30.23;;;15.30;;
1563;SDS011;775;51.958;7.976;2024-03-08T08:40:03;35.60;;;18.63;;
1563;SDS011;775;51.958;7.976;2024-03-08T08:42:54;32.83;;;18.80;;
1563;SDS011;775;51.958;7.976;2024-03-08T08:45:42;36.37;;;18.00;;
1563;SDS011;775;51.958;7.976;2024-03-08T08:48:34;33.20;;;18.67;;
1563;SDS011;775;51.958;7.976;2024-03-08T08:51:21;32.07;;;18.23;;
1563;SDS011;775;51.958;7.976;2024-03-08T08:54:09;37.60;;;19.20;;
1563;SDS011;775;51.958;7.976;2024-03-08T08:56:56;34.37;;;17.50;;
1563;SDS011;775;51.958;7.976;2024-03-08T08:59:44;35.27;;;19.80;;
1563;SDS011;775;51.958;7.976;2024-03-08T09:02:32;35.70;;;17.77;;
1563;SDS011;775;51.958;7.976;2024-03-08T09:05:21;35.10;;;17.67;;
1563;SDS011;775;51.958;7.976;2024-03-08T09:08:09;37.20;;;19.23;;
1563;SDS011;775;51.958;7.976;2024-03-08T09:10:58;30.93;;;18.30;;
1563;SDS011;775;51.958;7.976;2024-03-08T09:13:46;33.03;;;17.13;;
1563;SDS011;775;51.958;7.976;2024-03-08T09:16:34;33.70;;;17.80;;
1563;SDS011;775;51.958;7.976;2024-03-08T09:19:22;34.47;;;17.50;;
1563;SDS011;775;51.958;7.976;2024-03-08T09:22:12;33.67;;;17.13;;
1563;SDS011;775;51.958;7.976;2024-03-08T09:25:00;28.57;;;14.47;;
1563;SDS011;775;51.958;7.976;2024-03-08T09:27:48;30.13;;;16.20;;
1563;SDS011;775;51.958;7.976;2024-03-08T09:30:36;31.30;;;16.07;;
1563;SDS011;775;51.958;7.976;2024-03-08T09:33:23;34.10;;;18.27;;
1563;SDS011;775;51.958;7.976;2024-03-08T09:36:12;32.50;;;17.00;;
1563;SDS011;775;51.958;7.976;2024-03-08T09:39:03;35.40;;;17.83;;
1563;SDS011;775;51.958;7.976;2024-03-08T09:41:52;33.03;;;17.10;;
1563;SDS011;775;51.958;7.976;2024-03-08T09:44:43;30.40;;;16.63;;
1563;SDS011;775;51.958;7.976;2024-03-08T09:47:31;31.13;;;17.33;;
1563;SDS011;775;51.958;7.976;2024-03-08T09:50:24;31.87;;;15.23;;
1563;SDS011;775;51.958;7.976;2024-03-08T09:53:13;29.73;;;15.17;;
1563;SDS011;775;51.958;7.976;2024-03-08T09:56:02;28.67;;;15.40;;
1563;SDS011;775;51.958;7.976;2024-03-08T09:58:50;29.27;;;14.20;;
1563;SDS011;775;51.958;7.976;2024-03-08T10:02:00;31.37;;;16.90;;
1563;SDS011;775;51.958;7.976;2024-03-08T10:04:48;31.10;;;16.03;;
1563;SDS011;775;51.958;7.976;2024-03-08T10:07:35;29.73;;;15.47;;
1563;SDS011;775;51.958;7.976;2024-03-08T10:10:23;30.30;;;15.93;;
1563;SDS011;775;51.958;7.976;2024-03-08T10:13:11;29.27;;;15.43;;
1563;SDS011;775;51.958;7.976;2024-03-08T10:16:02;27.97;;;12.50;;
1563;SDS011;775;51.958;7.976;2024-03-08T10:18:50;29.90;;;16.23;;
1563;SDS011;775;51.958;7.976;2024-03-08T10:21:47;30.80;;;13.43;;
1563;SDS011;775;51.958;7.976;2024-03-08T10:24:34;28.77;;;14.60;;
1563;SDS011;775;51.958;7.976;2024-03-08T10:27:22;27.97;;;15.27;;
1563;SDS011;775;51.958;7.976;2024-03-08T10:30:14;32.07;;;17.07;;
1563;SDS011;775;51.958;7.976;2024-03-08T10:33:05;32.30;;;16.83;;
1563;SDS011;775;51.958;7.976;2024-03-08T10:35:53;29.50;;;15.90;;
1563;SDS011;775;51.958;7.976;2024-03-08T10:38:42;30.10;;;14.33;;
1563;SDS011;775;51.958;7.976;2024-03-08T10:41:32;28.20;;;14.93;;
1563;SDS011;775;51.958;7.976;2024-03-08T10:44:23;29.00;;;14.53;;
1563;SDS011;775;51.958;7.976;2024-03-08T10:47:15;29.50;;;15.13;;
1563;SDS011;775;51.958;7.976;2024-03-08T10:50:08;29.20;;;14.70;;
1563;SDS011;775;51.958;7.976;2024-03-08T10:52:58;32.00;;;15.30;;
1563;SDS011;775;51.958;7.976;2024-03-08T10:55:46;30.33;;;16.60;;
1563;SDS011;775;51.958;7.976;2024-03-08T10:58:35;29.30;;;14.90;;
1563;SDS011;775;51.958;7.976;2024-03-08T11:01:23;29.10;;;14.40;;
1563;SDS011;775;51.958;7.976;2024-03-08T11:04:13;29.80;;;15.83;;
1563;SDS011;775;51.958;7.976;2024-03-08T11:07:01;32.77;;;16.07;;
1563;SDS011;775;51.958;7.976;2024-03-08T11:09:51;29.37;;;14.43;;
1563;SDS011;775;51.958;7.976;2024-03-08T11:12:39;26.67;;;12.90;;
1563;SDS011;775;51.958;7.976;2024-03-08T11:15:27;28.57;;;12.93;;
1563;SDS011;775;51.958;7.976;2024-03-08T11:18:17;26.77;;;12.73;;
1563;SDS011;775;51.958;7.976;2024-03-08T11:21:09;29.23;;;14.03;;
1563;SDS011;775;51.958;7.976;2024-03-08T11:23:58;27.50;;;12.80;;
1563;SDS011;775;51.958;7.976;2024-03-08T11:26:46;26.20;;;12.70;;
1563;SDS011;775;51.958;7.976;2024-03-08T11:29:35;26.03;;;11.90;;
1563;SDS011;775;51.958;7.976;2024-03-08T11:32:27;26.57;;;13.50;;
1563;SDS011;775;51.958;7.976;2024-03-08T11:35:17;27.37;;;13.37;;
1563;SDS011;775;51.958;7.976;2024-03-08T11:38:07;28.27;;;12.70;;
1563;SDS011;775;51.958;7.976;2024-03-08T11:40:56;28.80;;;12.53;;
1563;SDS011;775;51.958;7.976;2024-03-08T11:43:44;25.33;;;12.30;;
1563;SDS011;775;51.958;7.976;2024-03-08T11:46:32;25.63;;;11.00;;
1563;SDS011;775;51.958;7.976;2024-03-08T11:49:20;24.97;;;12.23;;
1563;SDS011;775;51.958;7.976;2024-03-08T11:52:10;20.07;;;7.20;;
1563;SDS011;775;51.958;7.976;2024-03-08T11:55:00;23.33;;;10.53;;
1563;SDS011;775;51.958;7.976;2024-03-08T11:57:48;25.97;;;12.23;;
1563;SDS011;775;51.958;7.976;2024-03-08T12:00:36;25.13;;;11.87;;
1563;SDS011;775;51.958;7.976;2024-03-08T12:03:24;24.70;;;11.80;;
1563;SDS011;775;51.958;7.976;2024-03-08T12:06:12;26.43;;;12.87;;
1563;SDS011;775;51.958;7.976;2024-03-08T12:08:59;28.23;;;12.47;;
1563;SDS011;775;51.958;7.976;2024-03-08T12:11:49;26.83;;;11.77;;
1563;SDS011;775;51.958;7.976;2024-03-08T12:14:37;26.73;;;12.67;;
1563;SDS011;775;51.958;7.976;2024-03-08T12:17:25;25.30;;;12.40;;
1563;SDS011;775;51.958;7.976;2024-03-08T12:20:13;25.47;;;11.40;;
1563;SDS011;775;51.958;7.976;2024-03-08T12:23:02;24.23;;;12.13;;
1563;SDS011;775;51.958;7.976;2024-03-08T12:25:50;25.43;;;11.23;;
1563;SDS011;775;51.958;7.976;2024-03-08T12:28:39;26.53;;;12.67;;
1563;SDS011;775;51.958;7.976;2024-03-08T12:31:27;27.63;;;11.73;;
1563;SDS011;775;51.958;7.976;2024-03-08T12:34:14;27.57;;;12.20;;
1563;SDS011;775;51.958;7.976;2024-03-08T12:37:02;25.27;;;11.17;;
1563;SDS011;775;51.958;7.976;2024-03-08T12:39:54;26.53;;;12.90;;
1563;SDS011;775;51.958;7.976;2024-03-08T12:42:42;27.97;;;13.20;;
1563;SDS011;775;51.958;7.976;2024-03-08T12:45:31;26.00;;;11.40;;
1563;SDS011;775;51.958;7.976;2024-03-08T12:48:18;28.73;;;11.83;;
1563;SDS011;775;51.958;7.976;2024-03-08T12:51:06;27.60;;;11.17;;
1563;SDS011;775;51.958;7.976;2024-03-08T12:53:54;25.20;;;11.80;;
1563;SDS011;775;51.958;7.976;2024-03-08T12:56:42;24.97;;;11.50;;
1563;SDS011;775;51.958;7.976;2024-03-08T12:59:29;25.30;;;11.07;;
1563;SDS011;775;51.958;7.976;2024-03-08T13:02:18;25.67;;;12.37;;
1563;SDS011;775;51.958;7.976;2024-03-08T13:05:06;25.00;;;11.47;;
1563;SDS011;775;51.958;7.976;2024-03-08T13:07:55;24.20;;;11.53;;
1563;SDS011;775;51.958;7.976;2024-03-08T13:10:42;26.27;;;12.57;;
1563;SDS011;775;51.958;7.976;2024-03-08T13:13:30;25.73;;;10.87;;
1563;SDS011;775;51.958;7.976;2024-03-08T13:16:20;24.50;;;11.50;;
1563;SDS011;775;51.958;7.976;2024-03-08T13:19:09;24.63;;;11.20;;
1563;SDS011;775;51.958;7.976;2024-03-08T13:21:57;27.50;;;12.97;;
1563;SDS011;775;51.958;7.976;2024-03-08T13:24:44;25.87;;;11.00;;
1563;SDS011;775;51.958;7.976;2024-03-08T13:27:32;27.03;;;12.00;;
1563;SDS011;775;51.958;7.976;2024-03-08T13:30:19;25.43;;;11.37;;
1563;SDS011;775;51.958;7.976;2024-03-08T13:33:09;25.23;;;10.90;;
1563;SDS011;775;51.958;7.976;2024-03-08T13:35:58;28.83;;;10.80;;
1563;SDS011;775;51.958;7.976;2024-03-08T13:38:47;24.20;;;11.70;;
1563;SDS011;775;51.958;7.976;2024-03-08T13:41:35;25.97;;;11.63;;
1563;SDS011;775;51.958;7.976;2024-03-08T13:44:23;23.77;;;10.60;;
1563;SDS011;775;51.958;7.976;2024-03-08T13:47:11;24.90;;;11.33;;
1563;SDS011;775;51.958;7.976;2024-03-08T13:49:59;24.73;;;11.23;;
1563;SDS011;775;51.958;7.976;2024-03-08T13:52:48;26.83;;;12.60;;
1563;SDS011;775;51.958;7.976;2024-03-08T13:55:36;23.20;;;10.10;;
1563;SDS011;775;51.958;7.976;2024-03-08T13:58:24;23.57;;;10.97;;
1563;SDS011;775;51.958;7.976;2024-03-08T14:01:11;24.40;;;11.37;;
1563;SDS011;775;51.958;7.976;2024-03-08T14:03:59;22.00;;;9.80;;
1563;SDS011;775;51.958;7.976;2024-03-08T14:06:46;25.60;;;11.00;;
1563;SDS011;775;51.958;7.976;2024-03-08T14:09:36;24.40;;;12.00;;
1563;SDS011;775;51.958;7.976;2024-03-08T14:12:28;25.93;;;12.40;;
1563;SDS011;775;51.958;7.976;2024-03-08T14:15:15;26.10;;;11.93;;
1563;SDS011;775;51.958;7.976;2024-03-08T14:18:03;23.30;;;11.03;;
1563;SDS011;775;51.958;7.976;2024-03-08T14:20:52;25.50;;;11.70;;
1563;SDS011;775;51.958;7.976;2024-03-08T14:23:40;24.73;;;11.20;;
1563;SDS011;775;51.958;7.976;2024-03-08T14:26:30;26.30;;;11.50;;
1563;SDS011;775;51.958;7.976;2024-03-08T14:29:18;24.40;;;10.60;;
1563;SDS011;775;51.958;7.976;2024-03-08T14:32:05;23.67;;;10.97;;
1563;SDS011;775;51.958;7.976;2024-03-08T14:34:53;24.30;;;11.73;;
1563;SDS011;775;51.958;7.976;2024-03-08T14:37:41;26.23;;;11.90;;
1563;SDS011;775;51.958;7.976;2024-03-08T14:40:29;24.67;;;10.80;;
1563;SDS011;775;51.958;7.976;2024-03-08T14:43:18;27.20;;;12.60;;
1563;SDS011;775;51.958;7.976;2024-03-08T14:46:07;26.00;;;9.30;;
1563;SDS011;775;51.958;7.976;2024-03-08T14:48:55;23.83;;;10.50;;
1563;SDS011;775;51.958;7.976;2024-03-08T14:51:42;25.03;;;11.33;;
1563;SDS011;775;51.958;7.976;2024-03-08T14:54:30;25.90;;;11.37;;
1563;SDS011;775;51.958;7.976;2024-03-08T14:57:17;26.40;;;11.07;;
1563;SDS011;775;51.958;7.976;2024-03-08T15:00:07;25.07;;;12.27;;
1563;SDS011;775;51.958;7.976;2024-03-08T15:03:01;27.17;;;11.77;;
1563;SDS011;775;51.958;7.976;2024-03-08T15:05:50;23.53;;;10.40;;
1563;SDS011;775;51.958;7.976;2024-03-08T15:08:39;24.70;;;11.50;;
1563;SDS011;775;51.958;7.976;2024-03-08T15:11:27;25.63;;;11.37;;
1563;SDS011;775;51.958;7.976;2024-03-08T15:14:15;26.60;;;12.07;;
1563;SDS011;775;51.958;7.976;2024-03-08T15:17:06;27.07;;;12.57;;
1563;SDS011;775;51.958;7.976;2024-03-08T15:19:56;28.03;;;12.57;;
1563;SDS011;775;51.958;7.976;2024-03-08T15:22:46;26.17;;;11.70;;
1563;SDS011;775;51.958;7.976;2024-03-08T15:25:33;26.23;;;12.77;;
1563;SDS011;775;51.958;7.976;2024-03-08T15:28:24;24.47;;;11.50;;
1563;SDS011;775;51.958;7.976;2024-03-08T15:31:19;27.50;;;12.60;;
1563;SDS011;775;51.958;7.976;2024-03-08T15:34:11;25.73;;;11.00;;
1563;SDS011;775;51.958;7.976;2024-03-08T15:36:58;27.93;;;13.20;;
1563;SDS011;775;51.958;7.976;2024-03-08T15:39:48;26.47;;;12.30;;
1563;SDS011;775;51.958;7.976;2024-03-08T15:42:35;25.87;;;12.90;;
1563;SDS011;775;51.958;7.976;2024-03-08T15:45:23;25.20;;;12.10;;
1563;SDS011;775;51.958;7.976;2024-03-08T15:48:12;28.00;;;13.20;;
1563;SDS011;775;51.958;7.976;2024-03-08T15:51:01;28.67;;;13.00;;
1563;SDS011;775;51.958;7.976;2024-03-08T15:53:50;29.10;;;13.17;;
1563;SDS011;775;51.958;7.976;2024-03-08T15:56:40;28.53;;;11.87;;
1563;SDS011;775;51.958;7.976;2024-03-08T15:59:28;25.03;;;11.07;;
1563;SDS011;775;51.958;7.976;2024-03-08T16:02:19;29.23;;;11.60;;
1563;SDS011;775;51.958;7.976;2024-03-08T16:05:08;36.03;;;13.03;;
1563;SDS011;775;51.958;7.976;2024-03-08T16:07:58;24.93;;;12.80;;
1563;SDS011;775;51.958;7.976;2024-03-08T16:10:46;26.70;;;12.07;;
1563;SDS011;775;51.958;7.976;2024-03-08T16:13:36;30.13;;;13.63;;
1563;SDS011;775;51.958;7.976;2024-03-08T16:16:24;28.37;;;13.53;;
1563;SDS011;775;51.958;7.976;2024-03-08T16:19:11;26.03;;;12.60;;
1563;SDS011;775;51.958;7.976;2024-03-08T16:21:59;27.73;;;11.83;;
1563;SDS011;775;51.958;7.976;2024-03-08T16:24:48;30.43;;;16.23;;
1563;SDS011;775;51.958;7.976;2024-03-08T16:27:36;25.50;;;12.83;;
1563;SDS011;775;51.958;7.976;2024-03-08T16:30:23;27.47;;;12.20;;
1563;SDS011;775;51.958;7.976;2024-03-08T16:33:12;26.83;;;12.63;;
1563;SDS011;775;51.958;7.976;2024-03-08T16:36:00;30.17;;;12.43;;
1563;SDS011;775;51.958;7.976;2024-03-08T16:38:48;33.40;;;15.13;;
1563;SDS011;775;51.958;7.976;2024-03-08T16:41:36;28.23;;;14.30;;
1563;SDS011;775;51.958;7.976;2024-03-08T16:44:25;28.50;;;12.43;;
1563;SDS011;775;51.958;7.976;2024-03-08T16:47:13;25.03;;;12.10;;
1563;SDS011;775;51.958;7.976;2024-03-08T16:50:01;29.90;;;14.23;;
1563;SDS011;775;51.958;7.976;2024-03-08T16:52:50;30.00;;;14.43;;
1563;SDS011;775;51.958;7.976;2024-03-08T16:55:38;28.23;;;14.03;;
1563;SDS011;775;51.958;7.976;2024-03-08T16:58:27;29.33;;;14.57;;
1563;SDS011;775;51.958;7.976;2024-03-08T17:01:15;33.60;;;14.03;;
1563;SDS011;775;51.958;7.976;2024-03-08T17:04:02;28.03;;;13.83;;
1563;SDS011;775;51.958;7.976;2024-03-08T17:06:51;32.13;;;15.37;;
1563;SDS011;775;51.958;7.976;2024-03-08T17:09:39;28.67;;;14.00;;
1563;SDS011;775;51.958;7.976;2024-03-08T17:12:26;32.33;;;14.97;;